Time;durP1;ratioP1;P1;durP2;ratioP2;P2;SDS_P1;SDS_P2;PMS_P1;PMS_P2;Temp;Humidity;BMP_temperature;BMP_pressure;BME280_temperature;BME280_humidity;BME280_pressure;Samples;Min_cycle;Max_cycle;Signal;HPM_P1;HPM_P2
2022/12/31 00:00:33;;;;;;;;;;;11.20;99.90;;;10.64;100.00;97024.00;5046722;28;20051;-46
2022/12/31 00:02:59;;;;;;;;;;;11.10;99.90;;;10.58;100.00;97008.47;5046901;28;19917;-45
2022/12/31 00:05:24;;;;;;;;;;;11.10;99.90;;;10.61;100.00;97017.09;5043985;28;20612;-47
2022/12/31 00:07:50;;;;;;;;;;;11.10;99.90;;;10.60;100.00;97020.66;5050148;28;19917;-44
2022/12/31 00:10:16;;;;;;;;;;;11.10;99.90;;;10.61;100.00;97027.66;5046478;28;20357;-48
2022/12/31 00:12:41;;;;;;;;;;;11.10;99.90;;;10.55;100.00;97020.03;5045381;28;19921;-45
2022/12/31 00:15:07;;;;;;;;;;;11.10;99.90;;;10.39;100.00;97014.53;5041669;28;19978;-45
2022/12/31 00:17:33;;;;;;;;;;;11.00;99.90;;;10.33;100.00;97014.78;5046579;28;20022;-46
2022/12/31 00:19:58;;;;;;;;;;;10.90;99.90;;;10.35;100.00;97023.47;5050646;28;20427;-48
2022/12/31 00:22:24;;;;;;;;;;;10.90;99.90;;;10.40;100.00;97026.78;5047658;28;19923;-45
2022/12/31 00:24:49;;;;;;;;;;;10.90;99.90;;;10.41;100.00;97038.19;5047982;28;19916;-48
2022/12/31 00:27:15;;;;;;;;;;;10.90;99.90;;;10.47;100.00;97027.38;5041425;28;19924;-45
2022/12/31 00:29:41;;;;;;;;;;;10.90;99.90;;;10.52;100.00;97040.38;5044804;28;20204;-44
2022/12/31 00:32:06;;;;;;;;;;;11.00;99.90;;;10.61;100.00;97051.38;5045226;28;19912;-51
2022/12/31 00:34:32;;;;;;;;;;;11.10;99.90;;;10.67;100.00;97052.91;5044375;28;20361;-45
2022/12/31 00:36:58;;;;;;;;;;;11.10;99.90;;;10.83;100.00;97053.94;5041742;28;19927;-47
2022/12/31 00:39:23;;;;;;;;;;;11.20;99.90;;;10.86;100.00;97060.88;5039829;28;20634;-45
2022/12/31 00:41:49;;;;;;;;;;;11.30;99.90;;;10.93;100.00;97053.53;5044379;28;20435;-46
2022/12/31 00:44:14;;;;;;;;;;;11.40;99.90;;;10.93;100.00;97049.16;5035493;28;19917;-44
2022/12/31 00:46:40;;;;;;;;;;;11.40;99.90;;;10.96;100.00;97051.63;5041876;28;19924;-46
2022/12/31 00:49:06;;;;;;;;;;;11.40;99.90;;;10.98;100.00;97063.00;5039121;28;19932;-46
2022/12/31 00:51:32;;;;;;;;;;;11.50;99.90;;;11.05;100.00;97053.88;5039708;28;19921;-45
2022/12/31 00:53:57;;;;;;;;;;;11.50;99.90;;;11.14;100.00;97062.31;5044852;28;19932;-45
2022/12/31 00:56:26;;;;;;;;;;;11.60;99.90;;;11.20;100.00;97060.25;5045840;28;19970;-45
2022/12/31 00:58:52;;;;;;;;;;;11.60;99.90;;;11.03;100.00;97034.59;5048877;28;19935;-47
2022/12/31 01:01:20;;;;;;;;;;;11.60;99.90;;;11.26;100.00;97065.25;5047241;28;20281;-44
2022/12/31 01:03:47;;;;;;;;;;;11.70;99.90;;;11.33;100.00;97084.31;5053201;28;19925;-46
2022/12/31 01:06:14;;;;;;;;;;;11.80;99.90;;;11.37;100.00;97074.47;5052879;28;19958;-45
2022/12/31 01:08:39;;;;;;;;;;;11.80;99.90;;;11.38;100.00;97087.59;5046794;28;19924;-48
2022/12/31 01:11:27;;;;;;;;;;;11.80;99.90;;;11.40;100.00;97076.97;5053629;28;19916;-46
2022/12/31 01:13:57;;;;;;;;;;;11.80;99.90;;;11.41;100.00;97084.84;5048579;28;20403;-49
2022/12/31 01:16:28;;;;;;;;;;;11.80;99.90;;;11.44;100.00;97079.41;5046353;28;19917;-45
2022/12/31 01:18:54;;;;;;;;;;;11.80;99.90;;;11.41;100.00;97082.19;5050501;28;19913;-47
2022/12/31 01:21:20;;;;;;;;;;;11.80;99.90;;;11.42;100.00;97101.53;5028301;28;20007;-48
2022/12/31 01:23:46;;;;;;;;;;;11.80;99.90;;;11.36;100.00;97092.09;5038860;28;21689;-45
2022/12/31 01:26:14;;;;;;;;;;;11.80;99.90;;;11.38;100.00;97118.44;5044248;28;20220;-46
2022/12/31 01:28:40;;;;;;;;;;;11.80;99.90;;;11.32;100.00;97124.81;5036059;28;20067;-46
2022/12/31 01:31:11;;;;;;;;;;;11.70;99.90;;;11.28;100.00;97132.03;5049873;28;19916;-46
2022/12/31 01:33:38;;;;;;;;;;;11.70;99.90;;;11.22;100.00;97136.72;5046610;28;20351;-44
2022/12/31 01:36:06;;;;;;;;;;;11.60;99.90;;;11.15;100.00;97128.22;5051347;28;20003;-45
2022/12/31 01:38:32;;;;;;;;;;;11.60;99.90;;;11.26;100.00;97136.50;5049796;28;19916;-46
2022/12/31 01:40:58;;;;;;;;;;;11.60;99.90;;;11.19;100.00;97136.84;5050121;28;19925;-46
2022/12/31 01:43:23;;;;;;;;;;;11.60;99.90;;;11.15;100.00;97136.13;5047646;28;19983;-48
2022/12/31 01:45:52;;;;;;;;;;;11.60;99.90;;;11.21;100.00;97127.94;5047090;28;19956;-48
2022/12/31 01:48:24;;;;;;;;;;;11.60;99.90;;;11.23;100.00;97131.38;5046847;28;19920;-45
2022/12/31 01:50:50;;;;;;;;;;;11.60;99.90;;;11.23;100.00;97134.03;5026242;28;19920;-47
2022/12/31 01:53:17;;;;;;;;;;;11.60;99.90;;;11.07;100.00;97117.13;5035754;28;20237;-43
2022/12/31 01:55:49;;;;;;;;;;;11.60;99.90;;;11.10;100.00;97150.47;5025944;28;19928;-47
2022/12/31 01:58:19;;;;;;;;;;;11.50;99.90;;;11.05;100.00;97118.97;5028367;28;19920;-44
2022/12/31 02:00:45;;;;;;;;;;;11.50;99.90;;;11.16;100.00;97152.81;5050568;28;19921;-47
2022/12/31 02:03:12;;;;;;;;;;;11.60;99.90;;;11.00;100.00;97136.78;5031070;28;20284;-45
2022/12/31 02:05:49;;;;;;;;;;;11.50;99.90;;;11.09;100.00;97144.34;5027741;28;19916;-45
2022/12/31 02:08:15;;;;;;;;;;;11.50;99.90;;;11.01;100.00;97143.78;5049174;28;19916;-43
2022/12/31 02:10:40;;;;;;;;;;;11.50;99.90;;;11.04;100.00;97144.50;5047691;28;19916;-45
2022/12/31 02:13:06;;;;;;;;;;;11.40;99.90;;;10.95;100.00;97144.06;5063148;22;19968;-41
2022/12/31 02:16:05;;;;;;;;;;;11.40;99.90;;;10.97;100.00;97145.69;5025012;28;20023;-41
2022/12/31 02:18:36;;;;;;;;;;;11.40;99.90;;;10.96;100.00;97156.31;5028433;28;19925;-41
2022/12/31 02:21:20;;;;;;;;;;;11.40;99.90;;;11.06;100.00;97153.22;5030970;28;19921;-41
2022/12/31 02:23:55;;;;;;;;;;;11.50;99.90;;;11.15;100.00;97161.69;5031894;28;20116;-41
2022/12/31 02:26:23;;;;;;;;;;;11.50;99.90;;;11.15;100.00;97157.25;5048989;28;19932;-41
2022/12/31 02:29:14;;;;;;;;;;;11.50;99.90;;;11.16;100.00;97164.25;5049923;28;19920;-41
2022/12/31 02:31:49;;;;;;;;;;;11.60;99.90;;;11.18;100.00;97162.41;5062257;28;20436;-41
2022/12/31 02:34:31;;;;;;;;;;;11.60;99.90;;;11.24;100.00;97174.47;5045104;28;19951;-41
2022/12/31 02:36:59;;;;;;;;;;;11.60;99.90;;;11.27;100.00;97155.88;5049926;28;20323;-41
2022/12/31 02:39:24;;;;;;;;;;;11.70;99.90;;;11.31;100.00;97169.78;5050614;28;19947;-41
2022/12/31 02:41:50;;;;;;;;;;;11.70;99.90;;;11.44;100.00;97184.16;5040809;28;20824;-41
2022/12/31 02:44:30;;;;;;;;;;;11.80;99.90;;;11.45;100.00;97176.19;5044115;28;20193;-41
2022/12/31 02:47:08;;;;;;;;;;;11.90;99.90;;;11.50;100.00;97169.81;5047092;28;19925;-41
2022/12/31 02:50:04;;;;;;;;;;;11.90;99.90;;;11.51;100.00;97159.19;5048724;28;19925;-41
2022/12/31 02:53:00;;;;;;;;;;;11.90;99.90;;;11.37;100.00;97157.16;5047040;28;20075;-41
2022/12/31 02:55:33;;;;;;;;;;;11.90;99.90;;;11.25;100.00;97160.34;5027336;28;19948;-41
2022/12/31 02:58:05;;;;;;;;;;;11.80;99.90;;;11.23;100.00;97173.63;5025393;28;19920;-41
2022/12/31 03:03:18;;;;;;;;;;;11.60;99.90;;;11.19;100.00;97158.81;5021032;28;19931;-40
2022/12/31 03:05:45;;;;;;;;;;;11.60;99.90;;;11.29;100.00;97156.66;5041549;28;20020;-41
2022/12/31 03:08:20;;;;;;;;;;;11.70;99.90;;;11.36;100.00;97154.59;5044043;28;19963;-41
2022/12/31 03:10:45;;;;;;;;;;;11.70;99.90;;;11.38;100.00;97147.47;5044249;28;19921;-41
2022/12/31 03:13:11;;;;;;;;;;;11.80;99.90;;;11.34;100.00;97145.88;5041149;28;19925;-41
2022/12/31 03:15:37;;;;;;;;;;;11.80;99.90;;;11.40;100.00;97146.47;5043949;28;19963;-41
2022/12/31 03:18:06;;;;;;;;;;;11.80;99.90;;;11.41;100.00;97144.69;5044583;28;20302;-41
2022/12/31 03:23:26;;;;;;;;;;;11.90;99.90;;;11.49;100.00;97147.84;5043861;28;19943;-41
2022/12/31 03:25:52;;;;;;;;;;;11.90;99.90;;;11.51;100.00;97153.91;5047622;28;19961;-41
2022/12/31 03:28:20;;;;;;;;;;;11.90;99.90;;;11.64;100.00;97146.28;5045943;28;19927;-41
2022/12/31 03:30:49;;;;;;;;;;;12.00;99.90;;;11.59;100.00;97159.72;5046708;28;19923;-41
2022/12/31 03:33:15;;;;;;;;;;;12.00;99.90;;;11.65;100.00;97156.81;5045742;28;20301;-41
2022/12/31 03:35:42;;;;;;;;;;;12.00;99.90;;;11.70;100.00;97171.56;5042720;28;19942;-41
2022/12/31 03:38:07;;;;;;;;;;;12.10;99.90;;;11.93;100.00;97170.56;5027695;28;19964;-41
2022/12/31 03:40:37;;;;;;;;;;;12.30;99.90;;;12.11;100.00;97179.44;5031794;28;20357;-41
2022/12/31 03:43:03;;;;;;;;;;;12.50;99.90;;;12.26;100.00;97167.25;5029197;28;19920;-41
2022/12/31 03:45:29;;;;;;;;;;;12.60;99.90;;;12.35;100.00;97166.84;5028001;28;19916;-41
2022/12/31 03:47:55;;;;;;;;;;;12.70;99.90;;;12.35;100.00;97165.06;5029056;28;20015;-41
2022/12/31 03:50:20;;;;;;;;;;;12.70;99.90;;;12.36;100.00;97163.25;5030539;28;20431;-41
2022/12/31 03:52:46;;;;;;;;;;;12.80;99.90;;;12.54;100.00;97177.38;5041799;28;20299;-41
2022/12/31 03:55:12;;;;;;;;;;;12.90;99.90;;;12.62;100.00;97179.69;5025717;28;20007;-41
2022/12/31 03:57:38;;;;;;;;;;;13.00;99.90;;;12.67;100.00;97186.47;5024096;28;19925;-41
2022/12/31 04:00:06;;;;;;;;;;;13.10;99.90;;;12.78;100.00;97176.19;5033427;28;20359;-41
2022/12/31 04:02:32;;;;;;;;;;;13.20;99.90;;;12.81;100.00;97172.53;5032108;28;19929;-41
2022/12/31 04:04:58;;;;;;;;;;;13.30;99.90;;;12.82;100.00;97173.41;5028784;28;20395;-41
2022/12/31 04:07:23;;;;;;;;;;;13.30;99.90;;;12.80;100.00;97195.50;5037128;28;19923;-41
2022/12/31 04:09:49;;;;;;;;;;;13.30;99.90;;;12.67;100.00;97154.72;5026099;28;20008;-41
2022/12/31 04:12:14;;;;;;;;;;;13.30;99.90;;;12.85;100.00;97175.88;5022727;28;19932;-41
2022/12/31 04:14:40;;;;;;;;;;;13.30;99.90;;;12.94;100.00;97186.03;5027729;28;19916;-41
2022/12/31 04:17:06;;;;;;;;;;;13.40;99.90;;;12.97;100.00;97181.44;5030977;28;20034;-41
2022/12/31 04:19:31;;;;;;;;;;;13.40;99.90;;;13.05;100.00;97181.06;5031608;28;20012;-41
2022/12/31 04:21:57;;;;;;;;;;;13.40;99.90;;;13.03;100.00;97184.69;5043251;28;19928;-41
2022/12/31 04:24:22;;;;;;;;;;;13.50;99.90;;;13.01;100.00;97171.56;5028769;28;20684;-41
2022/12/31 04:26:48;;;;;;;;;;;13.50;99.90;;;13.10;100.00;97194.91;5040937;28;19916;-41
2022/12/31 04:29:14;;;;;;;;;;;13.50;99.90;;;13.06;100.00;97190.69;5042379;28;19921;-41
2022/12/31 04:31:40;;;;;;;;;;;13.50;99.90;;;13.08;100.00;97183.56;5042874;28;19933;-41
2022/12/31 04:34:05;;;;;;;;;;;13.50;99.90;;;13.10;100.00;97179.03;5032936;28;19925;-41
2022/12/31 04:36:31;;;;;;;;;;;13.50;99.90;;;13.11;100.00;97183.38;5031885;28;20350;-41
2022/12/31 04:38:57;;;;;;;;;;;13.50;99.90;;;12.94;100.00;97178.94;5038075;28;20387;-42
2022/12/31 04:41:25;;;;;;;;;;;13.40;99.90;;;12.84;100.00;97195.34;5030998;28;20150;-42
2022/12/31 04:43:56;;;;;;;;;;;13.30;99.90;;;12.71;100.00;97209.19;5030131;28;20098;-42
2022/12/31 04:46:25;;;;;;;;;;;13.20;99.90;;;12.60;100.00;97211.50;5035724;28;19925;-41
2022/12/31 04:48:50;;;;;;;;;;;13.00;99.90;;;12.63;100.00;97207.84;5026613;28;20015;-42
2022/12/31 04:51:16;;;;;;;;;;;13.00;99.90;;;12.56;100.00;97205.50;5040084;28;19927;-42
2022/12/31 04:53:42;;;;;;;;;;;13.00;99.90;;;12.59;100.00;97209.78;5061348;28;19924;-41
2022/12/31 04:56:08;;;;;;;;;;;13.00;99.90;;;12.56;100.00;97196.69;5048384;28;20313;-41
2022/12/31 04:58:34;;;;;;;;;;;13.00;99.90;;;12.73;100.00;97217.91;5045773;28;20606;-41
2022/12/31 05:01:00;;;;;;;;;;;13.10;99.90;;;12.74;100.00;97226.69;5034421;28;19933;-41
2022/12/31 05:03:26;;;;;;;;;;;13.10;99.90;;;12.80;100.00;97221.13;5034072;28;19916;-41
2022/12/31 05:05:52;;;;;;;;;;;13.10;99.90;;;12.77;100.00;97232.69;5049619;28;19956;-41
2022/12/31 05:08:18;;;;;;;;;;;13.10;99.90;;;12.77;100.00;97226.53;5042028;28;20400;-41
2022/12/31 05:10:48;;;;;;;;;;;13.10;99.90;;;12.69;100.00;97224.28;5053041;28;19927;-41
2022/12/31 05:13:14;;;;;;;;;;;13.10;99.90;;;12.63;100.00;97221.91;5051934;28;20175;-41
2022/12/31 05:15:40;;;;;;;;;;;13.00;99.90;;;12.64;100.00;97239.50;5044520;28;19969;-41
2022/12/31 05:18:06;;;;;;;;;;;13.00;99.90;;;12.57;100.00;97238.94;5045710;28;19920;-41
2022/12/31 05:20:32;;;;;;;;;;;13.00;99.90;;;12.59;100.00;97238.88;5047872;28;20395;-41
2022/12/31 05:22:57;;;;;;;;;;;13.00;99.90;;;12.61;100.00;97247.59;5053308;28;20430;-41
2022/12/31 05:25:23;;;;;;;;;;;13.00;99.90;;;12.58;100.00;97253.91;5049870;28;20038;-41
2022/12/31 05:27:48;;;;;;;;;;;13.00;99.90;;;12.59;100.00;97229.13;5051414;28;19928;-41
2022/12/31 05:30:14;;;;;;;;;;;13.00;99.90;;;12.56;100.00;97228.41;5047646;28;20240;-42
2022/12/31 05:32:40;;;;;;;;;;;13.00;99.90;;;12.56;100.00;97229.31;5050748;28;20414;-41
2022/12/31 05:35:06;;;;;;;;;;;13.00;99.90;;;12.55;100.00;97242.59;5033048;28;20308;-41
2022/12/31 05:37:32;;;;;;;;;;;12.90;99.90;;;12.57;100.00;97248.66;5030710;28;19964;-41
2022/12/31 05:39:58;;;;;;;;;;;12.90;99.90;;;12.56;100.00;97245.19;5037178;28;20085;-41
2022/12/31 05:42:23;;;;;;;;;;;12.90;99.90;;;12.49;100.00;97237.59;5030618;28;19928;-41
2022/12/31 05:44:49;;;;;;;;;;;12.90;99.90;;;12.51;100.00;97243.69;5025503;28;20626;-42
2022/12/31 05:47:15;;;;;;;;;;;12.90;99.90;;;12.46;100.00;97243.88;5027765;28;19933;-41
2022/12/31 05:49:40;;;;;;;;;;;12.90;99.90;;;12.49;100.00;97256.09;5027907;28;19927;-41
2022/12/31 05:52:06;;;;;;;;;;;12.90;99.90;;;12.56;100.00;97257.53;5051375;28;20207;-41
2022/12/31 05:54:32;;;;;;;;;;;12.90;99.90;;;12.52;100.00;97259.44;5032758;28;20003;-41
2022/12/31 05:56:58;;;;;;;;;;;12.90;99.90;;;12.51;100.00;97262.19;5050084;28;19917;-41
2022/12/31 05:59:23;;;;;;;;;;;12.90;99.90;;;12.51;100.00;97257.75;5034256;28;19924;-41
2022/12/31 06:01:49;;;;;;;;;;;12.90;99.90;;;12.47;100.00;97268.53;5024794;28;21295;-41
2022/12/31 06:04:14;;;;;;;;;;;12.90;99.90;;;12.44;100.00;97274.00;5023365;28;20070;-41
2022/12/31 06:06:40;;;;;;;;;;;12.90;99.90;;;12.37;100.00;97279.56;5025905;28;19927;-42
2022/12/31 06:09:06;;;;;;;;;;;12.80;99.90;;;12.32;100.00;97289.47;5026944;28;23463;-41
2022/12/31 06:11:31;;;;;;;;;;;12.80;99.90;;;12.26;100.00;97289.78;5039150;28;20381;-41
2022/12/31 06:13:57;;;;;;;;;;;12.70;99.90;;;12.29;100.00;97304.63;5026606;28;20612;-42
2022/12/31 06:16:23;;;;;;;;;;;12.80;99.90;;;12.34;100.00;97300.84;5031399;28;20403;-42
2022/12/31 06:18:49;;;;;;;;;;;12.80;99.90;;;12.40;100.00;97307.66;5030914;28;20015;-42
2022/12/31 06:21:19;;;;;;;;;;;12.80;99.90;;;12.40;100.00;97299.72;5032541;28;19936;-42
2022/12/31 06:23:45;;;;;;;;;;;12.90;99.90;;;12.33;100.00;97290.34;5041997;28;19928;-41
2022/12/31 06:26:11;;;;;;;;;;;12.80;99.90;;;12.31;100.00;97295.72;5054790;28;20419;-41
2022/12/31 06:28:36;;;;;;;;;;;12.80;99.90;;;12.12;100.00;97276.31;5048969;28;19924;-41
2022/12/31 06:31:04;;;;;;;;;;;12.70;99.90;;;12.14;100.00;97285.03;5038143;28;20053;-41
2022/12/31 06:33:30;;;;;;;;;;;12.70;99.90;;;12.11;100.00;97298.38;5033017;28;19931;-42
2022/12/31 06:35:56;;;;;;;;;;;12.60;99.90;;;12.09;100.00;97295.78;5029219;28;20069;-42
2022/12/31 06:38:23;;;;;;;;;;;12.60;99.90;;;12.11;100.00;97306.31;5028731;28;21565;-41
2022/12/31 06:40:49;;;;;;;;;;;12.60;99.90;;;12.18;100.00;97320.97;5037327;28;19921;-41
2022/12/31 06:43:14;;;;;;;;;;;12.60;99.90;;;12.25;100.00;97314.47;5056505;28;19924;-41
2022/12/31 06:45:40;;;;;;;;;;;12.70;99.90;;;12.28;100.00;97317.00;5047754;28;20000;-42
2022/12/31 06:48:06;;;;;;;;;;;12.70;99.90;;;12.36;100.00;97308.69;5038536;28;20066;-41
2022/12/31 06:50:31;;;;;;;;;;;12.80;99.90;;;12.36;100.00;97306.94;5038737;28;19927;-41
2022/12/31 06:52:57;;;;;;;;;;;12.80;99.90;;;12.37;100.00;97299.84;5041764;28;20266;-42
2022/12/31 06:55:23;;;;;;;;;;;12.80;99.90;;;12.37;100.00;97286.63;5049342;28;19920;-41
2022/12/31 06:57:49;;;;;;;;;;;12.70;99.90;;;12.33;100.00;97282.44;5049086;28;20007;-41
2022/12/31 07:00:15;;;;;;;;;;;12.80;99.90;;;12.28;100.00;97290.56;5042415;28;20061;-41
2022/12/31 07:03:09;;;;;;;;;;;12.70;99.90;;;12.31;100.00;97287.78;5046240;28;19972;-41
2022/12/31 07:05:45;;;;;;;;;;;12.70;99.90;;;12.29;100.00;97284.34;5047364;28;19917;-41
2022/12/31 07:08:33;;;;;;;;;;;12.70;99.90;;;12.15;100.00;97276.16;5050789;28;20603;-41
2022/12/31 07:11:11;;;;;;;;;;;12.70;99.90;;;12.22;100.00;97299.63;5049938;28;19917;-41
2022/12/31 07:13:48;;;;;;;;;;;12.60;99.90;;;12.27;100.00;97301.19;5051609;28;19960;-41
2022/12/31 07:16:32;;;;;;;;;;;12.70;99.90;;;12.25;100.00;97293.31;5045423;28;20868;-41
2022/12/31 07:19:43;;;;;;;;;;;12.70;99.90;;;12.28;100.00;97298.50;5043748;28;19962;-41
2022/12/31 07:22:14;;;;;;;;;;;12.70;99.90;;;12.20;100.00;97306.78;5033345;28;20027;-41
2022/12/31 07:24:41;;;;;;;;;;;12.70;99.90;;;12.27;100.00;97309.97;5054936;28;19916;-41
2022/12/31 07:27:35;;;;;;;;;;;12.80;99.90;;;12.47;100.00;97324.97;5053216;28;19924;-41
2022/12/31 07:30:05;;;;;;;;;;;12.80;99.90;;;12.55;100.00;97317.50;5064519;28;19947;-41
2022/12/31 07:32:38;;;;;;;;;;;12.90;99.90;;;12.64;100.00;97318.88;5049661;28;19978;-41
2022/12/31 07:35:15;;;;;;;;;;;13.00;99.90;;;12.71;100.00;97319.47;5064539;28;19924;-41
2022/12/31 07:38:07;;;;;;;;;;;13.10;99.90;;;12.77;100.00;97314.72;5049818;28;19928;-41
2022/12/31 07:40:53;;;;;;;;;;;13.20;99.90;;;12.88;100.00;97323.94;5058179;28;20028;-41
2022/12/31 07:43:37;;;;;;;;;;;13.30;99.90;;;12.91;100.00;97319.38;5066608;28;19928;-41
2022/12/31 07:46:18;;;;;;;;;;;13.30;99.90;;;13.03;100.00;97328.53;5052978;28;19979;-41
2022/12/31 07:48:44;;;;;;;;;;;13.40;99.90;;;13.01;100.00;97317.16;5051860;28;20186;-41
2022/12/31 07:51:10;;;;;;;;;;;13.50;99.90;;;13.12;100.00;97330.72;5053099;28;20307;-41
2022/12/31 07:53:36;;;;;;;;;;;13.50;99.90;;;13.11;100.00;97310.47;5053509;28;19966;-41
2022/12/31 07:56:04;;;;;;;;;;;13.60;99.90;;;13.23;100.00;97332.00;5046153;28;20044;-41
2022/12/31 07:58:39;;;;;;;;;;;13.60;99.90;;;13.28;100.00;97333.50;5047978;28;20448;-41
2022/12/31 08:01:10;;;;;;;;;;;13.70;99.90;;;13.32;100.00;97326.28;5043056;28;20341;-41
2022/12/31 08:04:00;;;;;;;;;;;13.70;99.90;;;13.39;100.00;97342.72;5048821;28;20476;-41
2022/12/31 08:06:47;;;;;;;;;;;13.80;99.90;;;13.40;100.00;97337.34;5042582;28;20027;-41
2022/12/31 08:09:35;;;;;;;;;;;13.80;99.90;;;13.38;100.00;97339.22;5048131;28;19923;-41
2022/12/31 08:12:01;;;;;;;;;;;13.80;99.90;;;13.45;100.00;97350.38;5051660;28;19932;-41
2022/12/31 08:14:28;;;;;;;;;;;13.80;99.90;;;13.48;100.00;97345.78;5059462;22;19937;-42
2022/12/31 08:16:55;;;;;;;;;;;13.90;99.90;;;13.61;100.00;97353.13;5031965;28;19932;-44
2022/12/31 08:19:26;;;;;;;;;;;14.00;99.90;;;13.70;100.00;97350.00;5030196;28;19955;-42
2022/12/31 08:22:12;;;;;;;;;;;14.10;99.90;;;13.87;100.00;97357.09;5029298;28;19920;-43
2022/12/31 08:25:10;;;;;;;;;;;14.20;99.90;;;13.97;100.00;97353.03;5017429;28;19924;-43
2022/12/31 08:28:01;;;;;;;;;;;14.30;99.90;;;14.12;100.00;97354.03;5030749;28;20364;-44
2022/12/31 08:30:35;;;;;;;;;;;14.50;99.90;;;14.12;100.00;97339.00;5050512;28;20125;-43
2022/12/31 08:33:12;;;;;;;;;;;14.50;99.90;;;14.14;100.00;97344.22;5047811;28;19925;-43
2022/12/31 08:35:54;;;;;;;;;;;14.60;99.90;;;14.16;100.00;97336.16;5028288;28;19925;-43
2022/12/31 08:38:19;;;;;;;;;;;14.60;99.90;;;14.19;100.00;97344.81;5046716;28;19917;-45
2022/12/31 08:41:03;;;;;;;;;;;14.60;99.90;;;14.22;100.00;97349.97;5049948;28;20072;-46
2022/12/31 08:43:37;;;;;;;;;;;14.60;99.90;;;14.25;100.00;97344.53;5033082;28;20603;-44
2022/12/31 08:46:06;;;;;;;;;;;14.70;99.90;;;14.29;100.00;97355.81;5024920;28;19921;-44
2022/12/31 08:48:38;;;;;;;;;;;14.70;99.90;;;14.28;100.00;97356.75;5029937;28;19932;-43
2022/12/31 08:51:04;;;;;;;;;;;14.70;99.90;;;14.24;100.00;97373.78;5025841;28;19927;-46
2022/12/31 08:53:31;;;;;;;;;;;14.70;99.90;;;14.29;100.00;97374.41;5040743;28;19924;-44
2022/12/31 08:56:04;;;;;;;;;;;14.70;99.90;;;14.34;100.00;97375.00;5042006;28;19932;-42
2022/12/31 08:58:42;;;;;;;;;;;14.80;99.90;;;14.37;100.00;97392.56;5047996;28;19928;-43
2022/12/31 09:01:08;;;;;;;;;;;14.80;99.90;;;14.43;100.00;97394.91;5044607;28;21056;-45
2022/12/31 09:03:52;;;;;;;;;;;14.80;99.90;;;14.43;100.00;97392.25;5043709;28;20163;-44
2022/12/31 09:06:25;;;;;;;;;;;14.90;99.90;;;14.44;100.00;97393.94;5044692;28;19924;-44
2022/12/31 09:09:02;;;;;;;;;;;14.90;99.90;;;14.38;100.00;97378.38;5020004;28;19924;-47
2022/12/31 09:11:58;;;;;;;;;;;14.80;99.90;;;14.46;100.00;97384.09;5030995;28;19986;-44
2022/12/31 09:14:42;;;;;;;;;;;14.80;99.90;;;14.47;100.00;97391.13;5039203;28;19960;-44
2022/12/31 09:17:31;;;;;;;;;;;14.80;99.90;;;14.46;100.00;97402.69;5021152;28;20334;-47
2022/12/31 09:19:57;;;;;;;;;;;14.90;99.90;;;14.47;100.00;97410.56;5037082;28;19920;-44
2022/12/31 09:22:23;;;;;;;;;;;14.90;99.90;;;14.53;100.00;97406.72;5051744;28;20162;-44
2022/12/31 09:24:49;;;;;;;;;;;14.90;99.90;;;14.63;100.00;97401.84;5048714;28;19924;-44
2022/12/31 09:27:20;;;;;;;;;;;15.00;99.90;;;14.70;100.00;97403.22;5048947;28;20013;-43
2022/12/31 09:30:02;;;;;;;;;;;15.10;99.90;;;14.68;100.00;97395.34;5036694;28;19917;-46
2022/12/31 09:32:41;;;;;;;;;;;15.10;99.90;;;14.79;100.00;97401.88;5031281;28;20322;-44
2022/12/31 09:35:25;;;;;;;;;;;15.20;99.90;;;14.89;100.00;97397.75;5033372;28;19940;-44
2022/12/31 09:37:58;;;;;;;;;;;15.30;99.90;;;14.93;100.00;97403.75;5048401;28;19923;-44
2022/12/31 09:40:27;;;;;;;;;;;15.30;99.90;;;14.99;100.00;97393.66;5034982;28;20297;-43
2022/12/31 09:43:13;;;;;;;;;;;15.40;99.90;;;15.06;100.00;97418.09;5056410;28;19972;-43
2022/12/31 09:45:51;;;;;;;;;;;15.40;99.90;;;15.14;100.00;97420.31;5056126;28;20418;-44
2022/12/31 09:48:54;;;;;;;;;;;15.50;99.90;;;15.26;100.00;97417.84;5049641;28;19921;-43
2022/12/31 09:51:24;;;;;;;;;;;15.60;99.90;;;15.31;100.00;97422.03;5049247;28;20015;-44
2022/12/31 09:54:18;;;;;;;;;;;15.70;99.90;;;15.34;100.00;97421.88;5054160;28;19916;-43
2022/12/31 09:56:46;;;;;;;;;;;15.70;99.90;;;15.31;100.00;97414.94;5046742;28;20384;-43
2022/12/31 09:59:28;;;;;;;;;;;15.70;99.90;;;15.35;100.00;97416.47;5039207;28;20423;-43
2022/12/31 10:01:58;;;;;;;;;;;15.80;99.90;;;15.41;100.00;97407.31;5037798;28;19924;-44
2022/12/31 10:04:42;;;;;;;;;;;15.80;99.90;;;15.47;100.00;97399.00;5032681;28;20373;-44
2022/12/31 10:07:11;;;;;;;;;;;15.90;99.90;;;15.53;100.00;97409.28;5050556;28;19916;-43
2022/12/31 10:10:14;;;;;;;;;;;15.90;99.90;;;15.58;98.36;97412.53;5039070;28;19935;-42
2022/12/31 10:13:06;;;;;;;;;;;16.00;99.90;;;15.68;97.98;97410.19;5025831;28;19956;-43
2022/12/31 10:16:00;;;;;;;;;;;16.10;99.90;;;15.73;97.24;97413.44;5033349;28;19950;-43
2022/12/31 10:18:59;;;;;;;;;;;16.10;99.90;;;15.78;95.96;97402.59;5050594;28;20374;-44
2022/12/31 10:21:41;;;;;;;;;;;16.10;99.90;;;15.73;97.20;97404.63;5042007;28;19928;-44
2022/12/31 10:24:38;;;;;;;;;;;16.10;99.90;;;15.69;96.31;97393.31;5032207;28;19931;-45
2022/12/31 10:27:16;;;;;;;;;;;16.00;99.90;;;15.54;96.25;97387.06;5045334;28;19925;-43
2022/12/31 10:29:57;;;;;;;;;;;16.00;99.90;;;15.61;96.86;97399.06;5037556;28;19959;-42
2022/12/31 10:32:59;;;;;;;;;;;16.00;99.90;;;15.64;94.94;97398.03;5046104;28;19932;-43
2022/12/31 10:35:30;;;;;;;;;;;16.00;99.90;;;15.69;95.24;97406.59;5050974;28;20007;-46
2022/12/31 10:38:30;;;;;;;;;;;16.00;99.90;;;15.74;95.80;97404.56;5029612;28;20032;-45
2022/12/31 10:41:32;;;;;;;;;;;16.10;99.90;;;15.68;97.01;97404.88;5051166;28;20194;-45
2022/12/31 10:44:26;;;;;;;;;;;16.00;99.90;;;15.64;97.45;97401.53;5046059;28;19928;-44
2022/12/31 10:47:16;;;;;;;;;;;16.00;99.90;;;15.55;96.94;97369.31;5048310;28;19936;-42
2022/12/31 10:50:11;;;;;;;;;;;16.00;99.90;;;15.65;96.34;97384.66;5051555;28;20003;-45
2022/12/31 10:52:45;;;;;;;;;;;16.00;99.90;;;15.65;95.28;97389.13;5048287;28;19921;-48
2022/12/31 10:55:23;;;;;;;;;;;16.00;99.90;;;15.72;93.60;97390.47;5031347;28;19923;-43
2022/12/31 10:58:07;;;;;;;;;;;16.10;99.90;;;15.75;93.26;97385.00;5047433;28;20343;-43
2022/12/31 11:00:47;;;;;;;;;;;16.10;99.90;;;15.77;93.46;97383.13;5030567;28;20260;-45
2022/12/31 11:03:49;;;;;;;;;;;16.10;99.90;;;15.76;94.17;97370.78;5031887;28;19921;-44
2022/12/31 11:06:36;;;;;;;;;;;16.10;99.90;;;15.73;94.83;97378.03;5047862;28;19921;-43
2022/12/31 11:09:19;;;;;;;;;;;16.10;99.90;;;15.75;92.30;97374.34;5049427;28;19916;-43
2022/12/31 11:12:08;;;;;;;;;;;16.10;99.90;;;15.81;93.66;97381.16;5039247;28;19944;-44
2022/12/31 11:15:01;;;;;;;;;;;16.20;99.90;;;15.79;90.36;97367.94;5026822;28;20309;-43
2022/12/31 11:17:35;;;;;;;;;;;16.20;99.90;;;15.91;90.66;97370.81;4999913;28;19969;-44
2022/12/31 11:20:26;;;;;;;;;;;16.20;99.90;;;15.93;93.46;97363.59;5051835;28;19925;-43
2022/12/31 11:23:23;;;;;;;;;;;16.30;99.90;;;15.92;92.44;97370.72;5053329;28;19932;-43
2022/12/31 11:26:01;;;;;;;;;;;16.30;99.90;;;16.00;91.46;97379.09;5046205;28;19916;-44
2022/12/31 11:28:30;;;;;;;;;;;16.40;99.90;;;16.09;87.57;97371.53;5034050;28;19917;-44
2022/12/31 11:31:17;;;;;;;;;;;16.40;99.90;;;16.08;87.17;97345.84;5033470;28;19970;-44
2022/12/31 11:33:55;;;;;;;;;;;16.50;99.90;;;16.21;85.75;97350.34;5030924;28;20255;-43
2022/12/31 11:36:36;;;;;;;;;;;16.50;99.90;;;16.28;83.80;97355.31;5054039;28;19920;-43
2022/12/31 11:39:28;;;;;;;;;;;16.60;99.90;;;16.27;84.13;97345.63;5032772;28;19939;-45